createdAt,value
2022-12-18T00:01:28.100Z,29.47
2022-12-18T00:03:58.223Z,28.40
2022-12-18T00:06:28.617Z,28.70
2022-12-18T00:09:00.288Z,28.43
2022-12-18T00:11:31.267Z,29.73
2022-12-18T00:14:02.827Z,27.80
2022-12-18T00:16:34.386Z,28.50
2022-12-18T00:19:04.064Z,32.17
2022-12-18T00:21:34.522Z,30.03
2022-12-18T00:24:04.893Z,29.43
2022-12-18T00:26:36.710Z,29.90
2022-12-18T00:29:09.972Z,29.73
2022-12-18T00:32:03.540Z,32.57
2022-12-18T00:34:46.328Z,29.67
2022-12-18T00:37:19.896Z,28.00
2022-12-18T00:39:51.753Z,26.93
2022-12-18T00:42:44.689Z,30.13
2022-12-18T00:45:15.127Z,28.97
2022-12-18T00:47:43.934Z,30.03
2022-12-18T00:50:14.095Z,29.07
2022-12-18T00:52:43.225Z,29.63
2022-12-18T00:55:12.877Z,32.27
2022-12-18T00:57:41.869Z,30.40
2022-12-18T01:00:16.063Z,29.70
2022-12-18T01:02:44.830Z,29.27
2022-12-18T01:05:20.992Z,31.77
2022-12-18T01:07:50.336Z,31.30
2022-12-18T01:10:19.524Z,31.77
2022-12-18T01:12:48.179Z,30.70
2022-12-18T01:15:21.454Z,29.13
2022-12-18T01:17:50.244Z,28.10
2022-12-18T01:20:18.669Z,28.43
2022-12-18T01:22:47.982Z,30.77
2022-12-18T01:25:16.714Z,28.63
2022-12-18T01:27:48.394Z,26.57
2022-12-18T01:30:16.965Z,28.93
2022-12-18T01:32:48.394Z,27.73
2022-12-18T01:35:17.574Z,27.13
2022-12-18T01:37:47.605Z,25.70
2022-12-18T01:40:17.825Z,28.63
2022-12-18T01:42:46.192Z,27.43
2022-12-18T01:45:31.236Z,28.07
2022-12-18T01:48:05.019Z,27.20
2022-12-18T01:50:37.616Z,28.07
2022-12-18T01:53:12.596Z,27.37
2022-12-18T01:55:46.863Z,26.53
2022-12-18T01:58:18.890Z,26.23
2022-12-18T02:00:48.786Z,29.50
2022-12-18T02:03:19.451Z,24.20
2022-12-18T02:05:55.706Z,25.27
2022-12-18T02:08:31.943Z,23.20
2022-12-18T02:11:08.037Z,22.23
2022-12-18T02:13:45.511Z,25.37
2022-12-18T02:16:23.419Z,25.60
2022-12-18T02:19:20.612Z,26.20
2022-12-18T02:21:57.521Z,25.53
2022-12-18T02:24:36.387Z,27.03
2022-12-18T02:27:09.387Z,25.77
2022-12-18T02:29:42.779Z,23.53
2022-12-18T02:32:17.939Z,22.57
2022-12-18T02:34:49.561Z,19.63
2022-12-18T02:37:21.236Z,20.00
2022-12-18T02:39:52.256Z,20.27
2022-12-18T02:42:22.745Z,19.13
2022-12-18T02:44:54.020Z,20.33
2022-12-18T02:47:25.658Z,19.73
2022-12-18T02:50:05.616Z,19.10
2022-12-18T02:52:41.929Z,18.67
2022-12-18T02:55:22.377Z,18.97
2022-12-18T02:57:58.606Z,19.07
2022-12-18T03:00:34.806Z,18.37
2022-12-18T03:03:10.762Z,17.13
2022-12-18T03:05:44.364Z,16.53
2022-12-18T03:08:18.876Z,17.57
2022-12-18T03:10:52.478Z,16.93
2022-12-18T03:13:28.921Z,18.77
2022-12-18T03:16:02.025Z,21.07
2022-12-18T03:18:37.346Z,18.87
2022-12-18T03:21:09.123Z,18.50
2022-12-18T03:23:44.340Z,17.30
2022-12-18T03:26:18.597Z,19.70
2022-12-18T03:28:54.451Z,18.97
2022-12-18T03:31:26.533Z,19.00
2022-12-18T03:33:56.603Z,17.90
2022-12-18T03:36:26.951Z,18.73
2022-12-18T03:39:10.127Z,19.07
2022-12-18T03:42:05.720Z,18.30
2022-12-18T03:45:27.626Z,19.43
2022-12-18T03:48:10.884Z,17.90
2022-12-18T03:50:55.554Z,18.40
2022-12-18T03:53:33.274Z,18.03
2022-12-18T03:56:24.738Z,19.10
2022-12-18T04:01:44.277Z,18.70
2022-12-18T04:04:31.890Z,19.73
2022-12-18T04:07:07.456Z,20.20
2022-12-18T04:09:41.306Z,20.73
2022-12-18T04:12:11.638Z,20.97
2022-12-18T04:14:40.286Z,20.23
2022-12-18T04:17:11.401Z,18.23
2022-12-18T04:19:43.775Z,17.90
2022-12-18T04:24:59.045Z,18.47
2022-12-18T04:27:30.956Z,17.10
2022-12-18T04:30:01.331Z,16.47
2022-12-18T04:32:31.280Z,16.03
2022-12-18T04:35:09.881Z,16.93
2022-12-18T04:37:40.729Z,17.63
2022-12-18T04:40:10.899Z,16.50
2022-12-18T04:42:39.902Z,16.87
2022-12-18T04:45:10.405Z,15.73
2022-12-18T04:47:39.727Z,15.03
2022-12-18T04:50:13.491Z,14.47
2022-12-18T04:52:43.087Z,15.23
2022-12-18T04:55:14.097Z,13.10
2022-12-18T04:57:43.786Z,13.33
2022-12-18T05:00:18.188Z,13.37
2022-12-18T05:02:47.333Z,11.73
2022-12-18T05:05:18.325Z,10.70
2022-12-18T05:07:47.891Z,12.23
2022-12-18T05:10:16.880Z,11.77
2022-12-18T05:13:02.971Z,9.53
2022-12-18T05:15:32.423Z,10.03
2022-12-18T05:18:01.561Z,10.40
2022-12-18T05:20:33.546Z,10.83
2022-12-18T05:23:03.021Z,10.40
2022-12-18T05:25:31.836Z,9.77
2022-12-18T05:28:00.578Z,8.50
2022-12-18T05:30:29.342Z,8.20
2022-12-18T05:33:00.185Z,8.73
2022-12-18T05:35:29.107Z,8.17
2022-12-18T05:38:01.733Z,7.83
2022-12-18T05:40:31.116Z,8.10
2022-12-18T05:43:08.108Z,7.47
2022-12-18T05:45:40.244Z,7.87
2022-12-18T05:48:16.120Z,7.70
2022-12-18T05:50:48.093Z,7.40
2022-12-18T05:53:23.078Z,7.20
2022-12-18T05:55:52.140Z,7.80
2022-12-18T05:58:21.611Z,7.60
2022-12-18T06:00:50.904Z,7.47
2022-12-18T06:03:19.851Z,7.50
2022-12-18T06:05:48.960Z,7.23
2022-12-18T06:08:19.101Z,7.50
2022-12-18T06:10:54.251Z,7.13
2022-12-18T06:13:24.255Z,7.90
2022-12-18T06:15:53.295Z,7.10
2022-12-18T06:18:23.786Z,6.73
2022-12-18T06:20:59.172Z,7.07
2022-12-18T06:23:29.682Z,6.77
2022-12-18T06:25:58.724Z,6.53
2022-12-18T06:28:27.179Z,6.50
2022-12-18T06:30:55.624Z,6.60
2022-12-18T06:33:24.608Z,6.33
2022-12-18T06:35:59.367Z,6.77
2022-12-18T06:38:45.809Z,6.40
2022-12-18T06:41:17.146Z,7.60
2022-12-18T06:43:46.639Z,7.17
2022-12-18T06:46:15.748Z,6.47
2022-12-18T06:48:49.080Z,6.30
2022-12-18T06:51:21.474Z,6.77
2022-12-18T06:53:53.117Z,6.10
2022-12-18T06:56:23.028Z,6.33
2022-12-18T06:58:52.147Z,6.47
2022-12-18T07:01:22.342Z,6.20
2022-12-18T07:03:55.568Z,6.57
2022-12-18T07:06:25.921Z,6.30
2022-12-18T07:08:57.316Z,6.03
2022-12-18T07:11:26.294Z,5.50
2022-12-18T07:13:56.842Z,6.40
2022-12-18T07:16:26.179Z,6.00
2022-12-18T07:18:55.734Z,5.53
2022-12-18T07:21:26.675Z,6.30
2022-12-18T07:23:57.048Z,5.70
2022-12-18T07:26:29.677Z,5.20
2022-12-18T07:28:59.698Z,5.77
2022-12-18T07:31:29.451Z,5.00
2022-12-18T07:33:58.248Z,4.70
2022-12-18T07:36:27.392Z,5.17
2022-12-18T07:39:06.876Z,4.60
2022-12-18T07:41:35.647Z,4.70
2022-12-18T07:44:04.266Z,4.87
2022-12-18T07:46:33.811Z,5.10
2022-12-18T07:49:04.448Z,5.97
2022-12-18T07:51:34.181Z,4.87
2022-12-18T07:54:09.330Z,4.57
2022-12-18T07:56:39.298Z,5.13
2022-12-18T07:59:10.550Z,4.80
2022-12-18T08:01:39.403Z,5.00
2022-12-18T08:04:09.405Z,5.30
2022-12-18T08:06:46.172Z,4.97
2022-12-18T08:09:19.297Z,5.77
2022-12-18T08:11:48.272Z,5.63
2022-12-18T08:14:17.971Z,5.20
2022-12-18T08:16:47.162Z,4.87
2022-12-18T08:19:15.822Z,5.70
2022-12-18T08:21:47.300Z,5.33
2022-12-18T08:24:17.596Z,4.90
2022-12-18T08:27:06.730Z,5.50
2022-12-18T08:32:26.783Z,4.57
2022-12-18T08:37:41.164Z,5.43
2022-12-18T08:43:15.715Z,5.60
2022-12-18T08:45:47.791Z,5.30
2022-12-18T08:51:12.438Z,6.77
2022-12-18T08:53:43.391Z,5.47
2022-12-18T08:56:17.876Z,6.00
2022-12-18T08:58:48.196Z,6.23
2022-12-18T09:01:33.287Z,6.60
2022-12-18T09:04:03.456Z,6.30
2022-12-18T09:06:35.412Z,6.70
2022-12-18T09:09:11.266Z,6.60
2022-12-18T09:11:42.900Z,7.00
2022-12-18T09:14:13.115Z,7.57
2022-12-18T09:16:44.413Z,7.10
2022-12-18T09:19:17.309Z,7.77
2022-12-18T09:21:48.449Z,7.40
2022-12-18T09:24:20.623Z,7.20
2022-12-18T09:26:57.405Z,7.83
2022-12-18T09:29:40.778Z,7.13
2022-12-18T09:32:27.135Z,7.43
2022-12-18T09:34:59.265Z,7.10
2022-12-18T09:37:35.813Z,8.67
2022-12-18T09:40:18.721Z,7.20
2022-12-18T09:43:26.532Z,7.10
2022-12-18T09:46:10.122Z,7.20
2022-12-18T09:48:56.043Z,6.40
2022-12-18T09:51:48.141Z,7.47
2022-12-18T10:00:21.338Z,6.10
2022-12-18T10:02:55.227Z,6.13
2022-12-18T10:08:57.262Z,6.63
2022-12-18T10:11:42.117Z,6.20
2022-12-18T10:14:26.113Z,6.13
2022-12-18T10:17:07.453Z,5.53
2022-12-18T10:19:50.494Z,5.47
2022-12-18T10:22:34.299Z,5.73
2022-12-18T10:31:04.575Z,5.30
2022-12-18T10:36:54.589Z,5.00
2022-12-18T10:39:31.911Z,5.40
2022-12-18T11:04:51.096Z,4.63
2022-12-18T11:14:03.682Z,4.77
2022-12-18T11:16:36.899Z,4.53
2022-12-18T11:19:23.667Z,4.87
2022-12-18T11:21:52.620Z,5.10
2022-12-18T11:24:26.494Z,4.43
2022-12-18T11:26:59.456Z,5.07
2022-12-18T11:29:36.165Z,5.53
2022-12-18T11:32:27.008Z,5.10
2022-12-18T11:35:00.988Z,5.27
2022-12-18T11:37:29.996Z,6.00
2022-12-18T11:40:04.650Z,5.50
2022-12-18T11:42:40.883Z,5.20
2022-12-18T11:45:29.019Z,4.57
2022-12-18T11:48:03.680Z,5.13
2022-12-18T11:50:45.029Z,4.73
2022-12-18T11:53:14.611Z,5.27
2022-12-18T11:55:57.523Z,5.27
2022-12-18T11:58:44.141Z,4.97
2022-12-18T12:01:30.043Z,4.57
2022-12-18T12:04:10.293Z,4.60
2022-12-18T12:06:47.852Z,4.53
2022-12-18T12:09:24.559Z,5.00
2022-12-18T12:12:09.857Z,5.03
2022-12-18T12:14:50.348Z,5.20
2022-12-18T12:17:31.948Z,5.20
2022-12-18T12:20:09.990Z,5.50
2022-12-18T12:22:48.881Z,5.77
2022-12-18T12:25:31.005Z,4.97
2022-12-18T12:28:15.188Z,5.40
2022-12-18T12:30:57.522Z,5.20
2022-12-18T12:33:39.551Z,5.60
2022-12-18T12:36:17.609Z,5.10
2022-12-18T12:38:52.395Z,5.37
2022-12-18T12:41:40.311Z,4.83
2022-12-18T12:44:11.627Z,5.00
2022-12-18T12:46:43.881Z,4.40
2022-12-18T12:49:16.777Z,4.77
2022-12-18T12:51:48.232Z,4.70
2022-12-18T12:54:21.552Z,4.90
2022-12-18T12:56:59.109Z,4.23
2022-12-18T12:59:37.492Z,4.10
2022-12-18T13:02:17.063Z,3.77
2022-12-18T13:04:53.803Z,3.73
2022-12-18T13:07:29.580Z,4.00
2022-12-18T13:10:17.465Z,3.90
2022-12-18T13:12:57.797Z,4.00
2022-12-18T13:15:32.335Z,3.90
2022-12-18T13:18:17.712Z,3.53
2022-12-18T13:20:53.128Z,3.80
2022-12-18T13:23:39.847Z,3.50
2022-12-18T13:26:33.355Z,3.10
2022-12-18T13:29:05.451Z,3.63
2022-12-18T13:32:06.268Z,3.70
2022-12-18T13:34:35.012Z,4.30
2022-12-18T13:37:46.659Z,3.40
2022-12-18T13:40:56.610Z,4.40
2022-12-18T13:43:40.925Z,4.03
2022-12-18T13:46:24.178Z,3.47
2022-12-18T13:48:59.745Z,3.60
2022-12-18T13:51:28.931Z,3.97
2022-12-18T13:54:01.850Z,4.00
2022-12-18T13:56:33.342Z,3.97
2022-12-18T13:59:22.977Z,3.83
2022-12-18T14:01:56.554Z,4.00
2022-12-18T14:04:29.107Z,3.40
2022-12-18T14:07:05.739Z,3.73
2022-12-18T14:09:39.550Z,3.83
2022-12-18T14:12:34.253Z,3.87
2022-12-18T14:15:03.157Z,4.20
2022-12-18T14:17:33.734Z,3.70
2022-12-18T14:20:03.311Z,3.70
2022-12-18T14:22:33.236Z,3.83
2022-12-18T14:25:18.270Z,3.77
2022-12-18T14:27:49.724Z,3.77
2022-12-18T14:30:30.708Z,3.87
2022-12-18T14:33:08.068Z,4.30
2022-12-18T14:35:40.283Z,4.80
2022-12-18T14:38:24.318Z,4.73
2022-12-18T14:41:01.682Z,4.77
2022-12-18T14:43:32.271Z,6.20
2022-12-18T14:46:02.385Z,4.67
2022-12-18T14:48:40.582Z,5.30
2022-12-18T14:51:20.001Z,5.73
2022-12-18T14:53:54.910Z,5.90
2022-12-18T14:56:27.911Z,6.47
2022-12-18T14:58:58.694Z,7.90
2022-12-18T15:01:30.665Z,9.33
2022-12-18T15:04:01.027Z,10.20
2022-12-18T15:06:33.075Z,9.97
2022-12-18T15:09:03.024Z,11.03
2022-12-18T15:11:48.650Z,13.23
2022-12-18T15:14:43.791Z,12.23
2022-12-18T15:17:20.337Z,13.47
2022-12-18T15:19:50.871Z,14.70
2022-12-18T15:22:29.019Z,15.43
2022-12-18T15:24:59.159Z,17.07
2022-12-18T15:27:39.802Z,17.93
2022-12-18T15:30:26.157Z,18.83
2022-12-18T15:33:15.467Z,21.27
2022-12-18T15:35:47.011Z,22.60
2022-12-18T15:38:15.832Z,21.83
2022-12-18T15:40:45.398Z,22.03
2022-12-18T15:43:32.824Z,22.23
2022-12-18T15:46:01.178Z,25.03
2022-12-18T15:48:29.346Z,26.97
2022-12-18T15:50:59.887Z,28.10
2022-12-18T15:53:33.129Z,26.93
2022-12-18T15:56:19.347Z,28.60
2022-12-18T15:58:50.073Z,29.47
2022-12-18T16:01:25.058Z,28.23
2022-12-18T16:03:54.713Z,30.07
2022-12-18T16:06:23.575Z,30.13
2022-12-18T16:08:52.123Z,29.40
2022-12-18T16:11:41.145Z,35.80
2022-12-18T16:14:17.893Z,29.43
2022-12-18T16:16:46.776Z,30.23
2022-12-18T16:19:15.291Z,30.13
2022-12-18T16:21:43.577Z,32.07
2022-12-18T16:24:17.072Z,31.43
2022-12-18T16:26:46.199Z,30.03
2022-12-18T16:29:17.252Z,31.03
2022-12-18T16:31:45.668Z,29.60
2022-12-18T16:34:22.688Z,31.53
2022-12-18T16:36:51.925Z,31.33
2022-12-18T16:39:20.436Z,30.33
2022-12-18T16:41:49.451Z,31.53
2022-12-18T16:44:21.288Z,30.13
2022-12-18T16:46:50.155Z,31.60
2022-12-18T16:49:20.241Z,31.67
2022-12-18T16:51:49.147Z,32.33
2022-12-18T16:54:19.696Z,32.90
2022-12-18T16:56:50.358Z,30.60
2022-12-18T16:59:20.782Z,29.40
2022-12-18T17:01:50.179Z,30.80
2022-12-18T17:04:19.315Z,30.07
2022-12-18T17:06:51.948Z,31.00
2022-12-18T17:09:23.347Z,30.93
2022-12-18T17:11:52.637Z,29.47
2022-12-18T17:14:24.698Z,31.27
2022-12-18T17:17:19.708Z,29.90
2022-12-18T17:19:45.345Z,31.10
2022-12-18T17:22:13.743Z,30.80
2022-12-18T17:24:45.430Z,30.83
2022-12-18T17:27:14.705Z,31.47
2022-12-18T17:29:48.036Z,30.63
2022-12-18T17:32:18.165Z,31.33
2022-12-18T17:34:46.953Z,31.67
2022-12-18T17:37:18.808Z,30.93
2022-12-18T17:39:47.538Z,31.53
2022-12-18T17:42:16.116Z,29.63
2022-12-18T17:44:46.789Z,30.40
2022-12-18T17:47:15.493Z,28.03
2022-12-18T17:49:44.396Z,30.90
2022-12-18T17:52:13.005Z,30.77
2022-12-18T17:54:42.490Z,30.60
2022-12-18T17:57:14.204Z,30.53
2022-12-18T17:59:42.524Z,29.30
2022-12-18T18:02:13.214Z,31.10
2022-12-18T18:04:42.394Z,30.63
2022-12-18T18:07:10.964Z,29.73
2022-12-18T18:09:39.432Z,31.50
2022-12-18T18:12:39.041Z,30.10
2022-12-18T18:15:08.431Z,30.70
2022-12-18T18:17:38.714Z,31.77
2022-12-18T18:20:08.177Z,32.93
2022-12-18T18:22:36.781Z,34.00
2022-12-18T18:25:06.948Z,33.40
2022-12-18T18:27:39.756Z,35.93
2022-12-18T18:30:10.483Z,35.17
2022-12-18T18:32:48.920Z,33.50
2022-12-18T18:35:51.946Z,33.37
2022-12-18T18:38:10.612Z,32.40
2022-12-18T18:40:38.926Z,33.30
2022-12-18T18:43:10.432Z,32.03
2022-12-18T18:45:38.965Z,33.77
2022-12-18T18:48:11.241Z,32.20
2022-12-18T18:50:39.798Z,32.07
2022-12-18T18:53:08.331Z,30.40
2022-12-18T18:55:38.168Z,30.30
2022-12-18T18:58:06.989Z,30.00
2022-12-18T19:00:35.942Z,32.00
2022-12-18T19:03:04.759Z,29.53
2022-12-18T19:05:35.027Z,30.17
2022-12-18T19:08:03.349Z,29.33
2022-12-18T19:10:31.679Z,28.33
2022-12-18T19:13:17.351Z,28.63
2022-12-18T19:15:46.492Z,29.80
2022-12-18T19:18:15.126Z,28.23
2022-12-18T19:20:55.715Z,28.27
2022-12-18T19:23:24.221Z,30.90
2022-12-18T19:26:04.103Z,32.90
2022-12-18T19:28:43.793Z,32.90
2022-12-18T19:31:15.517Z,35.33
2022-12-18T19:33:52.761Z,34.27
2022-12-18T19:36:25.289Z,34.10
2022-12-18T19:38:58.757Z,33.10
2022-12-18T19:41:32.103Z,33.93
2022-12-18T19:44:08.316Z,33.37
2022-12-18T19:46:40.646Z,32.37
2022-12-18T19:49:11.798Z,32.07
2022-12-18T19:51:47.756Z,29.17
2022-12-18T19:54:18.940Z,28.97
2022-12-18T19:56:47.863Z,26.83
2022-12-18T19:59:16.453Z,26.37
2022-12-18T20:01:44.986Z,26.23
2022-12-18T20:04:13.666Z,26.47
2022-12-18T20:06:50.814Z,25.37
2022-12-18T20:09:20.507Z,24.17
2022-12-18T20:11:50.770Z,25.63
2022-12-18T20:14:23.100Z,24.40
2022-12-18T20:16:53.034Z,23.23
2022-12-18T20:19:25.644Z,23.60
2022-12-18T20:21:55.989Z,22.17
2022-12-18T20:24:24.477Z,21.63
2022-12-18T20:26:53.512Z,18.73
2022-12-18T20:29:22.540Z,16.43
2022-12-18T20:31:50.789Z,14.77
2022-12-18T20:34:19.053Z,13.37
2022-12-18T20:36:48.052Z,12.97
2022-12-18T20:39:18.471Z,11.83
2022-12-18T20:41:47.541Z,11.93
2022-12-18T20:44:23.112Z,10.23
2022-12-18T20:46:54.156Z,11.10
2022-12-18T20:49:25.290Z,8.17
2022-12-18T20:51:54.919Z,8.00
2022-12-18T20:54:26.265Z,7.30
2022-12-18T20:56:54.521Z,6.63
2022-12-18T20:59:23.568Z,6.80
2022-12-18T21:01:52.408Z,5.50
2022-12-18T21:04:21.409Z,5.47
2022-12-18T21:06:59.212Z,5.03
2022-12-18T21:09:32.857Z,4.87
2022-12-18T21:12:25.744Z,4.13
2022-12-18T21:14:54.061Z,4.43
2022-12-18T21:17:24.129Z,4.87
2022-12-18T21:19:55.245Z,4.73
2022-12-18T21:22:23.667Z,4.80
2022-12-18T21:24:53.394Z,4.13
2022-12-18T21:27:21.954Z,4.60
2022-12-18T21:29:50.572Z,4.47
2022-12-18T21:32:20.815Z,4.70
2022-12-18T21:34:52.301Z,5.10
2022-12-18T21:37:20.470Z,4.87
2022-12-18T21:39:49.471Z,5.30
2022-12-18T21:42:37.341Z,5.50
2022-12-18T21:45:07.570Z,6.00
2022-12-18T21:47:37.229Z,6.73
2022-12-18T21:50:06.703Z,7.40
2022-12-18T21:52:34.931Z,7.40
2022-12-18T21:55:08.914Z,7.57
2022-12-18T21:57:40.233Z,7.80
2022-12-18T22:00:16.871Z,7.57
2022-12-18T22:02:48.441Z,8.17
2022-12-18T22:05:36.668Z,8.87
2022-12-18T22:08:05.371Z,8.87
2022-12-18T22:10:33.678Z,8.60
2022-12-18T22:13:03.974Z,8.73
2022-12-18T22:15:32.804Z,8.77
2022-12-18T22:18:03.857Z,8.50
2022-12-18T22:20:32.235Z,8.40
2022-12-18T22:23:04.378Z,8.33
2022-12-18T22:25:35.798Z,7.80
2022-12-18T22:28:27.300Z,8.17
2022-12-18T22:30:59.627Z,7.97
2022-12-18T22:33:29.668Z,7.70
2022-12-18T22:35:58.068Z,8.23
2022-12-18T22:38:26.199Z,7.83
2022-12-18T22:40:55.847Z,8.70
2022-12-18T22:43:27.487Z,7.77
2022-12-18T22:45:55.803Z,8.83
2022-12-18T22:48:24.309Z,8.77
2022-12-18T22:50:53.853Z,9.10
2022-12-18T22:53:27.770Z,9.43
2022-12-18T22:56:02.288Z,9.37
2022-12-18T22:58:31.975Z,10.13
2022-12-18T23:01:00.217Z,9.23
2022-12-18T23:03:28.418Z,8.90
2022-12-18T23:06:04.363Z,10.33
2022-12-18T23:08:32.912Z,9.07
2022-12-18T23:11:01.636Z,9.43
2022-12-18T23:13:31.648Z,8.90
2022-12-18T23:15:59.761Z,7.83
2022-12-18T23:18:27.994Z,8.67
2022-12-18T23:20:56.355Z,8.87
2022-12-18T23:23:26.024Z,9.17
2022-12-18T23:26:02.243Z,8.73
2022-12-18T23:28:33.208Z,8.83
2022-12-18T23:31:06.616Z,8.77
2022-12-18T23:33:35.176Z,8.60
2022-12-18T23:36:03.956Z,8.40
2022-12-18T23:38:33.434Z,9.47
2022-12-18T23:41:01.672Z,9.33
2022-12-18T23:43:31.556Z,9.33
2022-12-18T23:46:00.035Z,8.93
2022-12-18T23:48:28.322Z,9.50
2022-12-18T23:50:56.494Z,8.97
2022-12-18T23:53:24.943Z,9.30
2022-12-18T23:55:53.134Z,8.63
2022-12-18T23:58:22.645Z,8.63
